Airfield :
LOGIN :

Register | Disclaimer

   EN    FR    IT 

 










Legend :    VFR   Marginal VFR   IFR   Intensive IFR   Very Intensive IFR
Visi :
Ceiling :
>= 8 km
>= 3000ft
5 to 8 km
1000 to 3000 ft
1500m to 5 km
500 to 1000 ft
800 to 1500m
200 to 500 ft
< 800m
< 200 ft
Symbols :   Thunderstorms  Fog  Heavy snow  Heavy precipitations  Wind > 20 kt
SIGMETs :     Misc.  Thunderstorms  Icing  Turbulence  Mountain Waves  Volcanic Ashes






- Airport Elevation : 7 ft
- IATA code : ESH


EGKA - Shoreham

CURRENT METAR :
  • 141650Z 26008KT 9999 FEW036 SCT041 18/13 Q1015

EXPIRED METARs :
  • 141620Z 27007KT 9999 VCSH FEW045 18/14 Q1015
  • 141550Z 25010KT 9999 FEW045 18/13 Q1015
  • 141520Z 24015KT 9999 FEW030 18/13 Q1015
  • 141450Z 24012KT 9999 FEW030 19/15 Q1015

TAF TAF EGKA
Valid from the 14 at 15:00 until the 14 at 19:00 UTC


141358Z 1415/1419 23013KT 9999 SCT035
PROB30
TEMPO 1415/1418 7000 SHRA
BECMG 1417/1419 36004KT
ATIS : +44 1273 467 372



MET'MAP, your aeronautical weather chart ! - Copyright ORBIFLY December 2007 - Disclaimer

ORBIFLY MET'MAP TEAM :

Programming & Development : Alexandra Zaïnal
Concept & original design : Baudouin d'Aumeries
Assistance for programming : Marc-Olivier Méhu
Technical & hardware support : Manuel Goepfert

Contact : metmap@orbifly.com




SOURCES & CREDITS :

   NOAA